sensor_id;sensor_type;location;lat;lon;timestamp;temperature;humidity
5200;DHT22;2619;47.868;11.892;2022-07-19T00:01:56;13.50;99.90
5200;DHT22;2619;47.868;11.892;2022-07-19T00:04:21;13.30;99.90
5200;DHT22;2619;47.868;11.892;2022-07-19T00:06:47;13.30;99.90
5200;DHT22;2619;47.868;11.892;2022-07-19T00:09:14;13.20;99.90
5200;DHT22;2619;47.868;11.892;2022-07-19T00:11:40;13.30;99.90
5200;DHT22;2619;47.868;11.892;2022-07-19T00:14:05;13.40;99.90
5200;DHT22;2619;47.868;11.892;2022-07-19T00:16:31;13.40;99.90
5200;DHT22;2619;47.868;11.892;2022-07-19T00:18:57;13.50;99.90
5200;DHT22;2619;47.868;11.892;2022-07-19T00:21:22;13.50;99.90
5200;DHT22;2619;47.868;11.892;2022-07-19T00:23:48;13.60;99.90
5200;DHT22;2619;47.868;11.892;2022-07-19T00:26:14;13.60;99.90
5200;DHT22;2619;47.868;11.892;2022-07-19T00:28:39;13.50;99.90
5200;DHT22;2619;47.868;11.892;2022-07-19T00:31:05;13.40;99.90
5200;DHT22;2619;47.868;11.892;2022-07-19T00:33:31;13.20;99.90
5200;DHT22;2619;47.868;11.892;2022-07-19T00:35:56;13.20;99.90
5200;DHT22;2619;47.868;11.892;2022-07-19T00:38:22;13.10;99.90
5200;DHT22;2619;47.868;11.892;2022-07-19T00:40:47;13.30;99.90
5200;DHT22;2619;47.868;11.892;2022-07-19T00:43:13;13.30;99.90
5200;DHT22;2619;47.868;11.892;2022-07-19T00:45:39;13.40;99.90
5200;DHT22;2619;47.868;11.892;2022-07-19T00:48:05;13.40;99.90
5200;DHT22;2619;47.868;11.892;2022-07-19T00:50:31;13.40;99.90
5200;DHT22;2619;47.868;11.892;2022-07-19T00:53:00;13.30;99.90
5200;DHT22;2619;47.868;11.892;2022-07-19T00:55:28;13.20;99.90
5200;DHT22;2619;47.868;11.892;2022-07-19T00:57:56;13.10;99.90
5200;DHT22;2619;47.868;11.892;2022-07-19T01:00:22;13.10;99.90
5200;DHT22;2619;47.868;11.892;2022-07-19T01:02:48;13.00;99.90
5200;DHT22;2619;47.868;11.892;2022-07-19T01:05:14;12.90;99.90
5200;DHT22;2619;47.868;11.892;2022-07-19T01:07:40;12.70;99.90
5200;DHT22;2619;47.868;11.892;2022-07-19T01:10:09;12.70;99.90
5200;DHT22;2619;47.868;11.892;2022-07-19T01:12:35;12.60;99.90
5200;DHT22;2619;47.868;11.892;2022-07-19T01:15:02;12.50;99.90
5200;DHT22;2619;47.868;11.892;2022-07-19T01:17:28;12.50;99.90
5200;DHT22;2619;47.868;11.892;2022-07-19T01:19:54;12.40;99.90
5200;DHT22;2619;47.868;11.892;2022-07-19T01:22:20;12.40;99.90
5200;DHT22;2619;47.868;11.892;2022-07-19T01:24:46;12.40;99.90
5200;DHT22;2619;47.868;11.892;2022-07-19T01:27:12;12.30;99.90
5200;DHT22;2619;47.868;11.892;2022-07-19T01:29:38;12.30;99.90
5200;DHT22;2619;47.868;11.892;2022-07-19T01:32:04;12.30;99.90
5200;DHT22;2619;47.868;11.892;2022-07-19T01:34:31;12.40;99.90
5200;DHT22;2619;47.868;11.892;2022-07-19T01:36:57;12.40;99.90
5200;DHT22;2619;47.868;11.892;2022-07-19T01:39:22;12.30;99.90
5200;DHT22;2619;47.868;11.892;2022-07-19T01:41:48;12.40;99.90
5200;DHT22;2619;47.868;11.892;2022-07-19T01:44:14;12.40;99.90
5200;DHT22;2619;47.868;11.892;2022-07-19T01:46:40;12.30;99.90
5200;DHT22;2619;47.868;11.892;2022-07-19T01:49:06;12.30;99.90
5200;DHT22;2619;47.868;11.892;2022-07-19T01:51:31;12.20;99.90
5200;DHT22;2619;47.868;11.892;2022-07-19T01:53:57;12.20;99.90
5200;DHT22;2619;47.868;11.892;2022-07-19T01:56:23;12.20;99.90
5200;DHT22;2619;47.868;11.892;2022-07-19T01:58:49;12.30;99.90
5200;DHT22;2619;47.868;11.892;2022-07-19T02:01:14;12.40;99.90
5200;DHT22;2619;47.868;11.892;2022-07-19T02:03:40;12.40;99.90
5200;DHT22;2619;47.868;11.892;2022-07-19T02:06:06;12.30;99.90
5200;DHT22;2619;47.868;11.892;2022-07-19T02:08:31;12.30;99.90
5200;DHT22;2619;47.868;11.892;2022-07-19T02:10:57;12.20;99.90
5200;DHT22;2619;47.868;11.892;2022-07-19T02:13:24;12.20;99.90
5200;DHT22;2619;47.868;11.892;2022-07-19T02:15:51;12.30;99.90
5200;DHT22;2619;47.868;11.892;2022-07-19T02:18:17;12.30;99.90
5200;DHT22;2619;47.868;11.892;2022-07-19T02:20:43;12.30;99.90
5200;DHT22;2619;47.868;11.892;2022-07-19T02:23:09;12.10;99.90
5200;DHT22;2619;47.868;11.892;2022-07-19T02:25:34;12.10;99.90
5200;DHT22;2619;47.868;11.892;2022-07-19T02:28:00;12.00;99.90
5200;DHT22;2619;47.868;11.892;2022-07-19T02:30:26;11.90;99.90
5200;DHT22;2619;47.868;11.892;2022-07-19T02:32:51;11.90;99.90
5200;DHT22;2619;47.868;11.892;2022-07-19T02:35:17;11.80;99.90
5200;DHT22;2619;47.868;11.892;2022-07-19T02:37:44;11.80;99.90
5200;DHT22;2619;47.868;11.892;2022-07-19T02:40:10;11.80;99.90
5200;DHT22;2619;47.868;11.892;2022-07-19T02:42:37;11.80;99.90
5200;DHT22;2619;47.868;11.892;2022-07-19T02:45:03;11.80;99.90
5200;DHT22;2619;47.868;11.892;2022-07-19T02:47:29;11.70;99.90
5200;DHT22;2619;47.868;11.892;2022-07-19T02:49:54;11.70;99.90
5200;DHT22;2619;47.868;11.892;2022-07-19T02:52:20;11.70;99.90
5200;DHT22;2619;47.868;11.892;2022-07-19T02:54:46;11.50;99.90
5200;DHT22;2619;47.868;11.892;2022-07-19T02:57:11;11.50;99.90
5200;DHT22;2619;47.868;11.892;2022-07-19T02:59:37;11.60;99.90
5200;DHT22;2619;47.868;11.892;2022-07-19T03:02:03;11.50;99.90
5200;DHT22;2619;47.868;11.892;2022-07-19T03:04:28;11.50;99.90
5200;DHT22;2619;47.868;11.892;2022-07-19T03:06:54;11.50;99.90
5200;DHT22;2619;47.868;11.892;2022-07-19T03:09:20;11.50;99.90
5200;DHT22;2619;47.868;11.892;2022-07-19T03:11:45;11.50;99.90
5200;DHT22;2619;47.868;11.892;2022-07-19T03:14:11;11.50;99.90
5200;DHT22;2619;47.868;11.892;2022-07-19T03:16:36;11.40;99.90
5200;DHT22;2619;47.868;11.892;2022-07-19T03:19:02;11.40;99.90
5200;DHT22;2619;47.868;11.892;2022-07-19T03:21:28;11.30;99.90
5200;DHT22;2619;47.868;11.892;2022-07-19T03:23:53;11.20;99.90
5200;DHT22;2619;47.868;11.892;2022-07-19T03:26:19;11.30;99.90
5200;DHT22;2619;47.868;11.892;2022-07-19T03:28:44;11.20;99.90
5200;DHT22;2619;47.868;11.892;2022-07-19T03:31:10;11.20;99.90
5200;DHT22;2619;47.868;11.892;2022-07-19T03:33:36;11.10;99.90
5200;DHT22;2619;47.868;11.892;2022-07-19T03:36:01;11.10;99.90
5200;DHT22;2619;47.868;11.892;2022-07-19T03:38:27;11.20;99.90
5200;DHT22;2619;47.868;11.892;2022-07-19T03:40:53;11.10;99.90
5200;DHT22;2619;47.868;11.892;2022-07-19T03:43:19;11.10;99.90
5200;DHT22;2619;47.868;11.892;2022-07-19T03:45:46;11.10;99.90
5200;DHT22;2619;47.868;11.892;2022-07-19T03:48:12;11.30;99.90
5200;DHT22;2619;47.868;11.892;2022-07-19T03:50:38;11.40;99.90
5200;DHT22;2619;47.868;11.892;2022-07-19T03:53:04;11.50;99.90
5200;DHT22;2619;47.868;11.892;2022-07-19T03:55:30;11.70;99.90
5200;DHT22;2619;47.868;11.892;2022-07-19T03:57:56;11.90;99.90
5200;DHT22;2619;47.868;11.892;2022-07-19T04:00:21;12.00;99.90
5200;DHT22;2619;47.868;11.892;2022-07-19T04:02:47;12.00;99.90
5200;DHT22;2619;47.868;11.892;2022-07-19T04:05:14;12.00;99.90
5200;DHT22;2619;47.868;11.892;2022-07-19T04:07:40;12.00;99.90
5200;DHT22;2619;47.868;11.892;2022-07-19T04:10:06;12.00;99.90
5200;DHT22;2619;47.868;11.892;2022-07-19T04:12:32;12.10;99.90
5200;DHT22;2619;47.868;11.892;2022-07-19T04:14:57;12.10;99.90
5200;DHT22;2619;47.868;11.892;2022-07-19T04:17:23;12.10;99.90
5200;DHT22;2619;47.868;11.892;2022-07-19T04:19:49;12.10;99.90
5200;DHT22;2619;47.868;11.892;2022-07-19T04:22:14;12.00;99.90
5200;DHT22;2619;47.868;11.892;2022-07-19T04:24:40;12.00;99.90
5200;DHT22;2619;47.868;11.892;2022-07-19T04:27:06;12.20;99.90
5200;DHT22;2619;47.868;11.892;2022-07-19T04:29:31;12.30;99.90
5200;DHT22;2619;47.868;11.892;2022-07-19T04:31:57;12.40;99.90
5200;DHT22;2619;47.868;11.892;2022-07-19T04:34:22;13.00;99.90
5200;DHT22;2619;47.868;11.892;2022-07-19T04:36:48;14.30;99.90
5200;DHT22;2619;47.868;11.892;2022-07-19T04:39:14;15.90;99.90
5200;DHT22;2619;47.868;11.892;2022-07-19T04:41:39;17.40;99.90
5200;DHT22;2619;47.868;11.892;2022-07-19T04:44:05;18.70;99.90
5200;DHT22;2619;47.868;11.892;2022-07-19T04:46:31;19.90;99.90
5200;DHT22;2619;47.868;11.892;2022-07-19T04:48:57;20.80;99.90
5200;DHT22;2619;47.868;11.892;2022-07-19T04:51:22;21.60;99.90
5200;DHT22;2619;47.868;11.892;2022-07-19T04:53:48;22.10;99.90
5200;DHT22;2619;47.868;11.892;2022-07-19T04:56:14;22.30;99.90
5200;DHT22;2619;47.868;11.892;2022-07-19T04:58:39;22.80;99.90
5200;DHT22;2619;47.868;11.892;2022-07-19T05:01:05;23.40;99.90
5200;DHT22;2619;47.868;11.892;2022-07-19T05:03:30;24.10;99.90
5200;DHT22;2619;47.868;11.892;2022-07-19T05:05:56;24.80;99.70
5200;DHT22;2619;47.868;11.892;2022-07-19T05:08:22;25.40;98.50
5200;DHT22;2619;47.868;11.892;2022-07-19T05:10:48;26.00;96.60
5200;DHT22;2619;47.868;11.892;2022-07-19T05:13:13;26.60;94.70
5200;DHT22;2619;47.868;11.892;2022-07-19T05:15:39;27.00;93.20
5200;DHT22;2619;47.868;11.892;2022-07-19T05:18:04;27.30;92.80
5200;DHT22;2619;47.868;11.892;2022-07-19T05:20:31;27.60;91.30
5200;DHT22;2619;47.868;11.892;2022-07-19T05:22:56;27.70;90.80
5200;DHT22;2619;47.868;11.892;2022-07-19T05:25:22;27.70;90.20
5200;DHT22;2619;47.868;11.892;2022-07-19T05:27:47;27.90;88.90
5200;DHT22;2619;47.868;11.892;2022-07-19T05:30:13;27.90;87.10
5200;DHT22;2619;47.868;11.892;2022-07-19T05:32:39;28.30;84.70
5200;DHT22;2619;47.868;11.892;2022-07-19T05:35:05;28.70;83.00
5200;DHT22;2619;47.868;11.892;2022-07-19T05:37:31;29.10;80.00
5200;DHT22;2619;47.868;11.892;2022-07-19T05:39:56;29.50;78.70
5200;DHT22;2619;47.868;11.892;2022-07-19T05:42:22;28.00;78.70
5200;DHT22;2619;47.868;11.892;2022-07-19T05:44:47;26.80;82.90
5200;DHT22;2619;47.868;11.892;2022-07-19T05:47:13;27.30;83.80
5200;DHT22;2619;47.868;11.892;2022-07-19T05:49:39;28.40;81.70
5200;DHT22;2619;47.868;11.892;2022-07-19T05:52:04;29.10;80.10
5200;DHT22;2619;47.868;11.892;2022-07-19T05:54:30;29.20;78.70
5200;DHT22;2619;47.868;11.892;2022-07-19T05:56:55;28.50;80.20
5200;DHT22;2619;47.868;11.892;2022-07-19T05:59:21;28.60;79.30
5200;DHT22;2619;47.868;11.892;2022-07-19T06:01:50;28.50;80.80
5200;DHT22;2619;47.868;11.892;2022-07-19T06:04:16;28.50;80.30
5200;DHT22;2619;47.868;11.892;2022-07-19T06:06:42;28.40;80.40
5200;DHT22;2619;47.868;11.892;2022-07-19T06:09:08;29.00;78.30
5200;DHT22;2619;47.868;11.892;2022-07-19T06:11:35;27.90;82.20
5200;DHT22;2619;47.868;11.892;2022-07-19T06:14:01;29.20;79.10
5200;DHT22;2619;47.868;11.892;2022-07-19T06:16:28;30.00;75.60
5200;DHT22;2619;47.868;11.892;2022-07-19T06:18:54;30.90;74.00
5200;DHT22;2619;47.868;11.892;2022-07-19T06:21:21;31.20;70.30
5200;DHT22;2619;47.868;11.892;2022-07-19T06:23:47;30.80;73.20
5200;DHT22;2619;47.868;11.892;2022-07-19T06:26:13;30.50;72.50
5200;DHT22;2619;47.868;11.892;2022-07-19T06:28:39;30.40;72.90
5200;DHT22;2619;47.868;11.892;2022-07-19T06:31:07;30.20;73.50
5200;DHT22;2619;47.868;11.892;2022-07-19T06:33:33;30.60;73.70
5200;DHT22;2619;47.868;11.892;2022-07-19T06:35:58;30.90;71.20
5200;DHT22;2619;47.868;11.892;2022-07-19T06:38:24;31.20;71.70
5200;DHT22;2619;47.868;11.892;2022-07-19T06:40:50;31.70;70.40
5200;DHT22;2619;47.868;11.892;2022-07-19T06:43:15;32.00;68.50
5200;DHT22;2619;47.868;11.892;2022-07-19T06:45:41;31.70;70.00
5200;DHT22;2619;47.868;11.892;2022-07-19T06:48:06;31.60;70.70
5200;DHT22;2619;47.868;11.892;2022-07-19T06:50:32;31.70;71.10
5200;DHT22;2619;47.868;11.892;2022-07-19T06:52:58;31.80;70.20
5200;DHT22;2619;47.868;11.892;2022-07-19T06:55:23;30.80;72.80
5200;DHT22;2619;47.868;11.892;2022-07-19T06:57:50;30.40;73.40
5200;DHT22;2619;47.868;11.892;2022-07-19T07:00:15;30.50;74.20
5200;DHT22;2619;47.868;11.892;2022-07-19T07:02:41;30.20;73.50
5200;DHT22;2619;47.868;11.892;2022-07-19T07:05:09;29.80;76.30
5200;DHT22;2619;47.868;11.892;2022-07-19T07:07:35;29.50;75.30
5200;DHT22;2619;47.868;11.892;2022-07-19T07:10:02;28.50;78.10
5200;DHT22;2619;47.868;11.892;2022-07-19T07:12:28;27.60;81.80
5200;DHT22;2619;47.868;11.892;2022-07-19T07:14:54;27.10;82.60
5200;DHT22;2619;47.868;11.892;2022-07-19T07:17:20;27.30;84.10
5200;DHT22;2619;47.868;11.892;2022-07-19T07:19:46;28.40;82.30
5200;DHT22;2619;47.868;11.892;2022-07-19T07:22:12;27.60;83.60
5200;DHT22;2619;47.868;11.892;2022-07-19T07:24:37;27.80;84.70
5200;DHT22;2619;47.868;11.892;2022-07-19T07:27:03;28.50;79.80
5200;DHT22;2619;47.868;11.892;2022-07-19T07:29:29;29.50;76.20
5200;DHT22;2619;47.868;11.892;2022-07-19T07:31:55;30.30;79.00
5200;DHT22;2619;47.868;11.892;2022-07-19T07:34:20;31.00;78.20
5200;DHT22;2619;47.868;11.892;2022-07-19T07:36:46;31.20;75.90
5200;DHT22;2619;47.868;11.892;2022-07-19T07:39:13;30.60;76.10
5200;DHT22;2619;47.868;11.892;2022-07-19T07:41:38;29.60;77.10
5200;DHT22;2619;47.868;11.892;2022-07-19T07:44:04;30.20;77.20
5200;DHT22;2619;47.868;11.892;2022-07-19T07:46:30;30.20;76.30
5200;DHT22;2619;47.868;11.892;2022-07-19T07:48:56;29.20;80.80
5200;DHT22;2619;47.868;11.892;2022-07-19T07:51:22;28.60;81.40
5200;DHT22;2619;47.868;11.892;2022-07-19T07:53:47;27.40;84.10
5200;DHT22;2619;47.868;11.892;2022-07-19T07:56:13;26.90;86.30
5200;DHT22;2619;47.868;11.892;2022-07-19T07:58:38;27.20;85.00
5200;DHT22;2619;47.868;11.892;2022-07-19T08:01:04;27.50;87.00
5200;DHT22;2619;47.868;11.892;2022-07-19T08:03:30;27.60;85.10
5200;DHT22;2619;47.868;11.892;2022-07-19T08:05:55;27.70;84.50
5200;DHT22;2619;47.868;11.892;2022-07-19T08:08:24;27.70;84.40
5200;DHT22;2619;47.868;11.892;2022-07-19T08:10:52;27.60;86.30
5200;DHT22;2619;47.868;11.892;2022-07-19T08:13:18;28.00;83.80
5200;DHT22;2619;47.868;11.892;2022-07-19T08:15:44;28.60;84.30
5200;DHT22;2619;47.868;11.892;2022-07-19T08:18:09;29.10;80.90
5200;DHT22;2619;47.868;11.892;2022-07-19T08:20:35;29.40;79.60
5200;DHT22;2619;47.868;11.892;2022-07-19T08:23:01;29.00;82.20
5200;DHT22;2619;47.868;11.892;2022-07-19T08:25:26;29.40;81.10
5200;DHT22;2619;47.868;11.892;2022-07-19T08:27:52;29.20;79.50
5200;DHT22;2619;47.868;11.892;2022-07-19T08:30:18;29.20;80.00
5200;DHT22;2619;47.868;11.892;2022-07-19T08:32:43;29.70;78.90
5200;DHT22;2619;47.868;11.892;2022-07-19T08:35:09;30.00;81.40
5200;DHT22;2619;47.868;11.892;2022-07-19T08:37:35;30.30;79.50
5200;DHT22;2619;47.868;11.892;2022-07-19T08:40:03;30.10;78.10
5200;DHT22;2619;47.868;11.892;2022-07-19T08:42:30;30.60;79.80
5200;DHT22;2619;47.868;11.892;2022-07-19T08:44:56;30.90;79.90
5200;DHT22;2619;47.868;11.892;2022-07-19T08:47:24;30.00;79.20
5200;DHT22;2619;47.868;11.892;2022-07-19T08:49:51;29.80;80.30
5200;DHT22;2619;47.868;11.892;2022-07-19T08:52:18;30.40;80.50
5200;DHT22;2619;47.868;11.892;2022-07-19T08:54:44;30.70;77.60
5200;DHT22;2619;47.868;11.892;2022-07-19T08:57:10;30.40;80.20
5200;DHT22;2619;47.868;11.892;2022-07-19T08:59:54;30.50;78.80
5200;DHT22;2619;47.868;11.892;2022-07-19T09:02:20;30.90;77.90
5200;DHT22;2619;47.868;11.892;2022-07-19T09:05:08;30.60;78.00
5200;DHT22;2619;47.868;11.892;2022-07-19T09:07:35;30.90;76.30
5200;DHT22;2619;47.868;11.892;2022-07-19T09:10:34;30.80;73.30
5200;DHT22;2619;47.868;11.892;2022-07-19T09:13:08;30.70;75.40
5200;DHT22;2619;47.868;11.892;2022-07-19T09:15:50;30.40;75.20
5200;DHT22;2619;47.868;11.892;2022-07-19T09:20:46;30.00;81.10
5200;DHT22;2619;47.868;11.892;2022-07-19T09:23:12;29.70;80.20
5200;DHT22;2619;47.868;11.892;2022-07-19T09:28:03;29.10;81.60
5200;DHT22;2619;47.868;11.892;2022-07-19T09:30:41;29.30;79.70
5200;DHT22;2619;47.868;11.892;2022-07-19T09:33:10;29.40;80.40
5200;DHT22;2619;47.868;11.892;2022-07-19T09:35:39;29.30;80.40
5200;DHT22;2619;47.868;11.892;2022-07-19T09:38:26;29.20;81.00
5200;DHT22;2619;47.868;11.892;2022-07-19T09:41:13;28.90;81.80
5200;DHT22;2619;47.868;11.892;2022-07-19T09:43:55;28.90;86.10
5200;DHT22;2619;47.868;11.892;2022-07-19T09:46:41;28.80;84.30
5200;DHT22;2619;47.868;11.892;2022-07-19T09:49:12;28.60;83.90
5200;DHT22;2619;47.868;11.892;2022-07-19T09:51:40;28.50;86.50
5200;DHT22;2619;47.868;11.892;2022-07-19T09:54:08;28.30;87.60
5200;DHT22;2619;47.868;11.892;2022-07-19T09:56:40;28.20;87.10
5200;DHT22;2619;47.868;11.892;2022-07-19T09:59:06;27.90;90.10
5200;DHT22;2619;47.868;11.892;2022-07-19T10:01:32;27.80;89.40
5200;DHT22;2619;47.868;11.892;2022-07-19T10:04:16;27.50;89.20
5200;DHT22;2619;47.868;11.892;2022-07-19T10:06:43;27.80;91.00
5200;DHT22;2619;47.868;11.892;2022-07-19T10:09:14;27.90;88.90
5200;DHT22;2619;47.868;11.892;2022-07-19T10:11:40;28.00;87.50
5200;DHT22;2619;47.868;11.892;2022-07-19T10:14:06;28.10;90.50
5200;DHT22;2619;47.868;11.892;2022-07-19T10:16:50;28.20;90.90
5200;DHT22;2619;47.868;11.892;2022-07-19T10:19:28;28.30;91.30
5200;DHT22;2619;47.868;11.892;2022-07-19T10:21:57;28.70;88.80
5200;DHT22;2619;47.868;11.892;2022-07-19T10:24:42;28.70;89.70
5200;DHT22;2619;47.868;11.892;2022-07-19T10:27:09;28.60;88.20
5200;DHT22;2619;47.868;11.892;2022-07-19T10:29:35;28.80;86.90
5200;DHT22;2619;47.868;11.892;2022-07-19T10:32:06;29.10;87.90
5200;DHT22;2619;47.868;11.892;2022-07-19T10:34:32;29.10;89.20
5200;DHT22;2619;47.868;11.892;2022-07-19T10:36:58;29.00;89.50
5200;DHT22;2619;47.868;11.892;2022-07-19T10:42:05;29.30;89.00
5200;DHT22;2619;47.868;11.892;2022-07-19T10:44:32;29.30;89.00
5200;DHT22;2619;47.868;11.892;2022-07-19T10:46:58;29.10;86.70
5200;DHT22;2619;47.868;11.892;2022-07-19T10:49:42;29.00;86.80
5200;DHT22;2619;47.868;11.892;2022-07-19T10:57:49;29.50;81.80
5200;DHT22;2619;47.868;11.892;2022-07-19T11:00:24;29.60;83.30
5200;DHT22;2619;47.868;11.892;2022-07-19T11:02:52;29.40;78.90
5200;DHT22;2619;47.868;11.892;2022-07-19T11:05:29;29.30;77.20
5200;DHT22;2619;47.868;11.892;2022-07-19T11:07:57;29.30;78.50
5200;DHT22;2619;47.868;11.892;2022-07-19T11:10:29;29.20;81.50
5200;DHT22;2619;47.868;11.892;2022-07-19T11:12:57;29.40;79.50
5200;DHT22;2619;47.868;11.892;2022-07-19T11:15:23;29.60;81.50
5200;DHT22;2619;47.868;11.892;2022-07-19T11:18:05;29.60;79.30
5200;DHT22;2619;47.868;11.892;2022-07-19T11:20:35;29.40;78.80
5200;DHT22;2619;47.868;11.892;2022-07-19T11:23:03;29.20;82.30
5200;DHT22;2619;47.868;11.892;2022-07-19T11:25:34;29.40;84.70
5200;DHT22;2619;47.868;11.892;2022-07-19T11:28:01;29.60;81.70
5200;DHT22;2619;47.868;11.892;2022-07-19T11:30:31;29.80;78.30
5200;DHT22;2619;47.868;11.892;2022-07-19T11:33:02;29.70;77.70
5200;DHT22;2619;47.868;11.892;2022-07-19T11:35:30;29.50;74.20
5200;DHT22;2619;47.868;11.892;2022-07-19T11:37:57;29.60;75.20
5200;DHT22;2619;47.868;11.892;2022-07-19T11:40:24;29.50;72.10
5200;DHT22;2619;47.868;11.892;2022-07-19T11:42:51;29.70;73.40
5200;DHT22;2619;47.868;11.892;2022-07-19T11:45:25;29.80;73.20
5200;DHT22;2619;47.868;11.892;2022-07-19T11:47:55;30.00;70.50
5200;DHT22;2619;47.868;11.892;2022-07-19T11:50:24;30.20;69.50
5200;DHT22;2619;47.868;11.892;2022-07-19T11:52:57;30.40;66.60
5200;DHT22;2619;47.868;11.892;2022-07-19T11:55:25;30.40;66.70
5200;DHT22;2619;47.868;11.892;2022-07-19T11:57:52;30.40;69.60
5200;DHT22;2619;47.868;11.892;2022-07-19T12:00:19;30.40;70.10
5200;DHT22;2619;47.868;11.892;2022-07-19T12:05:27;30.30;71.40
5200;DHT22;2619;47.868;11.892;2022-07-19T12:07:57;30.20;69.80
5200;DHT22;2619;47.868;11.892;2022-07-19T12:10:35;30.00;72.10
5200;DHT22;2619;47.868;11.892;2022-07-19T12:13:02;29.90;74.20
5200;DHT22;2619;47.868;11.892;2022-07-19T12:15:45;29.80;76.40
5200;DHT22;2619;47.868;11.892;2022-07-19T12:18:12;30.00;74.40
5200;DHT22;2619;47.868;11.892;2022-07-19T12:20:38;30.30;74.70
5200;DHT22;2619;47.868;11.892;2022-07-19T12:23:30;30.50;72.70
5200;DHT22;2619;47.868;11.892;2022-07-19T12:26:03;30.20;71.30
5200;DHT22;2619;47.868;11.892;2022-07-19T12:28:29;30.10;70.00
5200;DHT22;2619;47.868;11.892;2022-07-19T12:31:05;30.00;71.10
5200;DHT22;2619;47.868;11.892;2022-07-19T12:33:31;30.00;73.60
5200;DHT22;2619;47.868;11.892;2022-07-19T12:35:57;30.20;76.20
5200;DHT22;2619;47.868;11.892;2022-07-19T12:38:33;30.40;73.70
5200;DHT22;2619;47.868;11.892;2022-07-19T12:41:06;30.30;73.40
5200;DHT22;2619;47.868;11.892;2022-07-19T12:43:33;30.40;75.20
5200;DHT22;2619;47.868;11.892;2022-07-19T12:46:00;30.30;72.00
5200;DHT22;2619;47.868;11.892;2022-07-19T12:48:28;30.20;72.40
5200;DHT22;2619;47.868;11.892;2022-07-19T12:50:55;30.10;71.10
5200;DHT22;2619;47.868;11.892;2022-07-19T12:53:21;30.10;75.10
5200;DHT22;2619;47.868;11.892;2022-07-19T12:55:47;30.10;74.30
5200;DHT22;2619;47.868;11.892;2022-07-19T12:58:16;30.00;74.10
5200;DHT22;2619;47.868;11.892;2022-07-19T13:01:01;30.10;77.40
5200;DHT22;2619;47.868;11.892;2022-07-19T13:03:26;30.40;75.20
5200;DHT22;2619;47.868;11.892;2022-07-19T13:05:52;30.50;74.40
5200;DHT22;2619;47.868;11.892;2022-07-19T13:08:17;30.50;77.00
5200;DHT22;2619;47.868;11.892;2022-07-19T13:10:43;30.70;75.10
5200;DHT22;2619;47.868;11.892;2022-07-19T13:13:09;30.60;73.70
5200;DHT22;2619;47.868;11.892;2022-07-19T13:15:35;30.70;71.30
5200;DHT22;2619;47.868;11.892;2022-07-19T13:18:01;30.50;73.70
5200;DHT22;2619;47.868;11.892;2022-07-19T13:20:27;30.80;74.80
5200;DHT22;2619;47.868;11.892;2022-07-19T13:22:53;31.00;70.30
5200;DHT22;2619;47.868;11.892;2022-07-19T13:25:19;31.10;71.20
5200;DHT22;2619;47.868;11.892;2022-07-19T13:27:45;31.30;69.40
5200;DHT22;2619;47.868;11.892;2022-07-19T13:30:11;31.20;72.10
5200;DHT22;2619;47.868;11.892;2022-07-19T13:32:36;31.20;69.60
5200;DHT22;2619;47.868;11.892;2022-07-19T13:35:02;31.30;69.70
5200;DHT22;2619;47.868;11.892;2022-07-19T13:37:28;31.40;65.50
5200;DHT22;2619;47.868;11.892;2022-07-19T13:39:54;31.40;64.00
5200;DHT22;2619;47.868;11.892;2022-07-19T13:42:20;31.30;65.20
5200;DHT22;2619;47.868;11.892;2022-07-19T13:44:46;31.30;68.20
5200;DHT22;2619;47.868;11.892;2022-07-19T13:47:11;31.30;64.10
5200;DHT22;2619;47.868;11.892;2022-07-19T13:49:37;31.40;62.40
5200;DHT22;2619;47.868;11.892;2022-07-19T13:52:02;31.30;63.80
5200;DHT22;2619;47.868;11.892;2022-07-19T13:54:28;31.40;60.80
5200;DHT22;2619;47.868;11.892;2022-07-19T13:56:54;31.50;60.20
5200;DHT22;2619;47.868;11.892;2022-07-19T13:59:19;31.50;64.90
5200;DHT22;2619;47.868;11.892;2022-07-19T14:01:46;31.60;61.50
5200;DHT22;2619;47.868;11.892;2022-07-19T14:04:12;31.60;65.40
5200;DHT22;2619;47.868;11.892;2022-07-19T14:06:37;31.50;64.80
5200;DHT22;2619;47.868;11.892;2022-07-19T14:09:03;31.70;62.80
5200;DHT22;2619;47.868;11.892;2022-07-19T14:11:29;31.70;64.50
5200;DHT22;2619;47.868;11.892;2022-07-19T14:13:54;31.70;61.90
5200;DHT22;2619;47.868;11.892;2022-07-19T14:16:20;31.80;61.20
5200;DHT22;2619;47.868;11.892;2022-07-19T14:18:46;31.60;65.40
5200;DHT22;2619;47.868;11.892;2022-07-19T14:21:11;31.50;62.90
5200;DHT22;2619;47.868;11.892;2022-07-19T14:23:37;31.40;64.10
5200;DHT22;2619;47.868;11.892;2022-07-19T14:26:03;31.20;64.50
5200;DHT22;2619;47.868;11.892;2022-07-19T14:28:28;31.10;63.20
5200;DHT22;2619;47.868;11.892;2022-07-19T14:30:54;31.00;63.90
5200;DHT22;2619;47.868;11.892;2022-07-19T14:33:20;31.00;63.70
5200;DHT22;2619;47.868;11.892;2022-07-19T14:35:46;30.90;63.20
5200;DHT22;2619;47.868;11.892;2022-07-19T14:38:12;30.80;63.90
5200;DHT22;2619;47.868;11.892;2022-07-19T14:40:37;30.90;62.30
5200;DHT22;2619;47.868;11.892;2022-07-19T14:43:03;31.10;60.40
5200;DHT22;2619;47.868;11.892;2022-07-19T14:45:29;31.10;60.00
5200;DHT22;2619;47.868;11.892;2022-07-19T14:47:54;31.10;60.00
5200;DHT22;2619;47.868;11.892;2022-07-19T14:50:21;30.90;60.50
5200;DHT22;2619;47.868;11.892;2022-07-19T14:52:47;30.70;62.50
5200;DHT22;2619;47.868;11.892;2022-07-19T14:55:12;30.70;65.00
5200;DHT22;2619;47.868;11.892;2022-07-19T14:57:38;30.70;65.90
5200;DHT22;2619;47.868;11.892;2022-07-19T15:00:07;30.70;64.30
5200;DHT22;2619;47.868;11.892;2022-07-19T15:02:33;30.80;59.60
5200;DHT22;2619;47.868;11.892;2022-07-19T15:04:58;30.80;64.80
5200;DHT22;2619;47.868;11.892;2022-07-19T15:07:25;30.70;64.90
5200;DHT22;2619;47.868;11.892;2022-07-19T15:09:50;30.70;65.70
5200;DHT22;2619;47.868;11.892;2022-07-19T15:12:16;30.50;64.00
5200;DHT22;2619;47.868;11.892;2022-07-19T15:14:42;30.40;64.80
5200;DHT22;2619;47.868;11.892;2022-07-19T15:17:07;30.30;66.50
5200;DHT22;2619;47.868;11.892;2022-07-19T15:19:33;30.30;63.60
5200;DHT22;2619;47.868;11.892;2022-07-19T15:21:59;30.10;62.50
5200;DHT22;2619;47.868;11.892;2022-07-19T15:24:24;30.00;63.40
5200;DHT22;2619;47.868;11.892;2022-07-19T15:26:50;30.00;65.10
5200;DHT22;2619;47.868;11.892;2022-07-19T15:29:16;30.00;63.80
5200;DHT22;2619;47.868;11.892;2022-07-19T15:31:45;30.10;66.10
5200;DHT22;2619;47.868;11.892;2022-07-19T15:34:10;30.20;66.80
5200;DHT22;2619;47.868;11.892;2022-07-19T15:36:36;30.10;61.20
5200;DHT22;2619;47.868;11.892;2022-07-19T15:39:03;30.10;61.70
5200;DHT22;2619;47.868;11.892;2022-07-19T15:41:29;30.10;61.80
5200;DHT22;2619;47.868;11.892;2022-07-19T15:43:56;30.10;60.40
5200;DHT22;2619;47.868;11.892;2022-07-19T15:46:23;30.00;60.10
5200;DHT22;2619;47.868;11.892;2022-07-19T15:48:50;29.90;60.10
5200;DHT22;2619;47.868;11.892;2022-07-19T15:51:15;29.90;62.10
5200;DHT22;2619;47.868;11.892;2022-07-19T15:53:41;29.80;63.50
5200;DHT22;2619;47.868;11.892;2022-07-19T15:56:09;29.90;63.30
5200;DHT22;2619;47.868;11.892;2022-07-19T15:58:34;29.90;62.00
5200;DHT22;2619;47.868;11.892;2022-07-19T16:01:00;30.10;65.70